Time;durP1;ratioP1;P1;durP2;ratioP2;P2;SDS_P1;SDS_P2;PMS_P1;PMS_P2;Temp;Humidity;BMP_temperature;BMP_pressure;BME280_temperature;BME280_humidity;BME280_pressure;Samples;Min_cycle;Max_cycle;Signal;HPM_P1;HPM_P2
2022/11/02 00:01:41;;;;;;;3.40;3.10;;;21.20;99.80;;;;;;5032654;28;20528;-67
2022/11/02 00:04:08;;;;;;;3.60;3.30;;;21.20;99.90;;;;;;5032817;28;20480;-67
2022/11/02 00:06:36;;;;;;;2.80;2.70;;;21.20;99.90;;;;;;5032681;28;20547;-67
2022/11/02 00:09:03;;;;;;;3.07;2.97;;;21.20;99.90;;;;;;5032641;28;20496;-67
2022/11/02 00:11:30;;;;;;;3.10;3.00;;;21.20;99.90;;;;;;5032457;28;20445;-67
2022/11/02 00:13:57;;;;;;;3.67;3.57;;;21.20;99.90;;;;;;5032698;28;20451;-67
2022/11/02 00:16:24;;;;;;;3.70;3.60;;;21.20;99.90;;;;;;5032534;28;20441;-67
2022/11/02 00:18:54;;;;;;;2.83;2.73;;;21.20;99.90;;;;;;5032342;28;20487;-67
2022/11/02 00:21:22;;;;;;;3.20;3.10;;;21.20;99.90;;;;;;5032378;28;20456;-67
2022/11/02 00:23:51;;;;;;;2.93;2.93;;;21.20;99.90;;;;;;5032534;28;20532;-67
2022/11/02 00:26:18;;;;;;;3.60;3.40;;;21.20;99.90;;;;;;5032167;28;20453;-66
2022/11/02 00:28:45;;;;;;;3.67;3.57;;;21.20;99.90;;;;;;5032237;28;20536;-68
2022/11/02 00:31:12;;;;;;;3.00;2.90;;;21.20;99.90;;;;;;5032187;28;20441;-67
2022/11/02 00:33:39;;;;;;;2.90;2.80;;;21.10;99.90;;;;;;5032350;28;20445;-66
2022/11/02 00:36:09;;;;;;;3.17;3.10;;;21.10;99.90;;;;;;5032354;28;20563;-67
2022/11/02 00:38:36;;;;;;;3.60;3.40;;;21.10;99.90;;;;;;5031637;28;20476;-67
2022/11/02 00:41:04;;;;;;;4.00;3.80;;;21.10;99.90;;;;;;5032135;28;20441;-67
2022/11/02 00:43:31;;;;;;;3.20;3.10;;;21.10;99.90;;;;;;5032149;28;20540;-66
2022/11/02 00:45:58;;;;;;;3.50;3.20;;;21.10;99.90;;;;;;5032130;28;20535;-67
2022/11/02 00:48:25;;;;;;;2.90;2.80;;;21.10;99.90;;;;;;5031709;28;20879;-66
2022/11/02 00:50:52;;;;;;;3.37;3.07;;;21.10;99.90;;;;;;5031897;28;20458;-66
2022/11/02 00:53:19;;;;;;;3.17;3.00;;;21.00;99.90;;;;;;5031968;28;20484;-66
2022/11/02 00:55:46;;;;;;;2.70;2.70;;;21.00;99.90;;;;;;5031734;28;20445;-67
2022/11/02 00:58:15;;;;;;;3.10;3.00;;;21.00;99.90;;;;;;5031881;28;20476;-67
2022/11/02 01:00:42;;;;;;;3.23;3.13;;;21.00;99.90;;;;;;5031676;28;20441;-66
2022/11/02 01:03:09;;;;;;;3.27;3.17;;;21.00;99.90;;;;;;5031956;28;20437;-67
2022/11/02 01:05:36;;;;;;;4.63;2.93;;;21.00;99.90;;;;;;5031668;28;20532;-66
2022/11/02 01:08:04;;;;;;;4.00;3.80;;;21.00;99.90;;;;;;5031739;28;20500;-65
2022/11/02 01:10:30;;;;;;;3.30;3.20;;;21.00;99.90;;;;;;5031657;28;20433;-66
2022/11/02 01:12:57;;;;;;;3.07;2.83;;;21.00;99.90;;;;;;5031829;28;20445;-66
2022/11/02 01:15:25;;;;;;;3.10;3.00;;;21.00;99.90;;;;;;5031518;28;20858;-66
2022/11/02 01:17:52;;;;;;;3.00;2.80;;;21.00;99.90;;;;;;5031836;28;20464;-66
2022/11/02 01:20:19;;;;;;;2.93;2.90;;;21.00;99.90;;;;;;5031481;28;20597;-66
2022/11/02 01:22:46;;;;;;;2.83;2.70;;;21.00;99.90;;;;;;5031758;28;20441;-66
2022/11/02 01:25:13;;;;;;;3.00;2.90;;;21.00;99.90;;;;;;5031482;28;20936;-67
2022/11/02 01:27:40;;;;;;;3.33;3.27;;;20.90;99.90;;;;;;5031453;28;21077;-66
2022/11/02 01:30:07;;;;;;;3.13;3.03;;;21.00;99.90;;;;;;5031903;28;20636;-66
2022/11/02 01:32:36;;;;;;;3.03;2.93;;;20.90;99.90;;;;;;5038471;28;20436;-65
2022/11/02 01:35:03;;;;;;;3.70;3.60;;;20.90;99.90;;;;;;5051177;28;20465;-66
2022/11/02 01:37:29;;;;;;;3.60;3.40;;;20.90;99.90;;;;;;5051313;28;20535;-66
2022/11/02 01:39:56;;;;;;;3.40;3.30;;;20.90;99.90;;;;;;5051237;28;20512;-66
2022/11/02 01:42:25;;;;;;;2.80;2.80;;;20.90;99.90;;;;;;5051590;28;20437;-66
2022/11/02 01:44:51;;;;;;;3.40;3.20;;;20.90;99.90;;;;;;5051782;28;20471;-65
2022/11/02 01:47:26;;;;;;;2.80;2.70;;;20.90;99.90;;;;;;5051701;28;20602;-65
2022/11/02 01:49:58;;;;;;;3.50;3.40;;;20.90;99.90;;;;;;5046586;28;20476;-66
2022/11/02 01:52:28;;;;;;;3.53;3.43;;;20.90;99.90;;;;;;5035487;28;21023;-66
2022/11/02 01:54:59;;;;;;;3.30;3.20;;;20.90;99.90;;;;;;5035142;28;20548;-66
2022/11/02 01:57:28;;;;;;;3.30;3.20;;;20.90;99.90;;;;;;5035257;28;20461;-66
2022/11/02 02:00:00;;;;;;;3.23;3.13;;;20.90;99.90;;;;;;5035828;28;20485;-65
2022/11/02 02:02:28;;;;;;;2.80;2.70;;;20.90;99.90;;;;;;5034984;28;20497;-66
2022/11/02 02:05:02;;;;;;;3.17;2.97;;;20.90;99.90;;;;;;5034931;28;20539;-65
2022/11/02 02:07:31;;;;;;;3.30;3.20;;;20.90;99.90;;;;;;5034996;28;20468;-66
2022/11/02 02:09:59;;;;;;;2.90;2.70;;;20.90;99.90;;;;;;5035012;28;20437;-67
2022/11/02 02:12:27;;;;;;;3.20;3.10;;;20.90;99.90;;;;;;5034861;28;20476;-66
2022/11/02 02:14:54;;;;;;;2.97;2.80;;;20.90;99.90;;;;;;5034721;28;20440;-65
2022/11/02 02:17:30;;;;;;;2.80;2.70;;;20.90;99.90;;;;;;5034807;28;20468;-66
2022/11/02 02:20:05;;;;;;;2.60;2.60;;;20.90;99.90;;;;;;5034622;28;20518;-66
2022/11/02 02:22:56;;;;;;;3.07;3.07;;;20.90;99.90;;;;;;5034744;28;20949;-66
2022/11/02 02:25:44;;;;;;;3.60;3.40;;;20.90;99.90;;;;;;5034502;28;20445;-65
2022/11/02 02:28:20;;;;;;;3.40;3.30;;;20.90;99.90;;;;;;5034401;28;20481;-66
2022/11/02 02:30:52;;;;;;;2.73;2.63;;;20.90;99.90;;;;;;5034564;28;20531;-66
2022/11/02 02:33:26;;;;;;;3.07;2.97;;;20.90;99.90;;;;;;5034590;28;20813;-66
2022/11/02 02:35:57;;;;;;;2.93;2.83;;;20.80;99.90;;;;;;5034270;28;20508;-66
2022/11/02 02:38:30;;;;;;;3.20;3.10;;;20.80;99.90;;;;;;5034522;28;20556;-65
2022/11/02 02:41:03;;;;;;;2.97;2.87;;;20.80;99.90;;;;;;5034174;28;20512;-67
2022/11/02 02:43:35;;;;;;;3.33;3.13;;;20.80;99.90;;;;;;5034384;28;20444;-67
2022/11/02 02:46:06;;;;;;;3.00;2.80;;;20.80;99.90;;;;;;5034297;28;20540;-66
2022/11/02 02:48:36;;;;;;;2.83;2.50;;;20.80;99.90;;;;;;5033937;28;20469;-66
2022/11/02 02:51:07;;;;;;;3.00;2.80;;;20.80;99.90;;;;;;5034077;28;20935;-66
2022/11/02 02:53:38;;;;;;;2.40;2.40;;;20.80;99.90;;;;;;5034230;28;20491;-66
2022/11/02 02:56:07;;;;;;;3.10;3.00;;;20.80;99.90;;;;;;5033878;28;20531;-66
2022/11/02 02:58:41;;;;;;;2.80;2.80;;;20.80;99.90;;;;;;5034248;28;20532;-66
2022/11/02 03:01:13;;;;;;;2.90;2.90;;;20.80;99.90;;;;;;5033329;28;21088;-66
2022/11/02 03:03:42;;;;;;;3.00;2.90;;;20.80;99.90;;;;;;5033797;28;20982;-66
2022/11/02 03:06:18;;;;;;;3.00;2.90;;;20.80;99.90;;;;;;5033929;28;20536;-66
2022/11/02 03:08:57;;;;;;;2.90;2.80;;;20.80;99.90;;;;;;5034000;28;20818;-65
2022/11/02 03:11:24;;;;;;;2.70;2.70;;;20.80;99.90;;;;;;5033817;28;20860;-67
2022/11/02 03:14:06;;;;;;;3.67;3.47;;;20.80;99.90;;;;;;5033693;28;20445;-65
2022/11/02 03:16:52;;;;;;;3.47;3.33;;;20.80;99.90;;;;;;5033746;28;20500;-66
2022/11/02 03:19:24;;;;;;;2.83;2.83;;;20.80;99.90;;;;;;5033871;28;20490;-67
2022/11/02 03:21:59;;;;;;;3.37;3.27;;;20.70;99.90;;;;;;5033458;28;20543;-65
2022/11/02 03:24:30;;;;;;;3.10;3.00;;;20.70;99.90;;;;;;5033462;28;20452;-67
2022/11/02 03:27:09;;;;;;;3.20;3.10;;;20.70;99.90;;;;;;5034040;28;20881;-67
2022/11/02 03:29:42;;;;;;;3.00;2.90;;;20.70;99.90;;;;;;5033379;28;20923;-66
2022/11/02 03:32:12;;;;;;;3.30;3.20;;;20.70;99.90;;;;;;5033508;28;20455;-65
2022/11/02 03:34:41;;;;;;;3.57;3.27;;;20.70;99.90;;;;;;5033237;28;20449;-66
2022/11/02 03:37:16;;;;;;;2.83;2.73;;;20.70;99.90;;;;;;5033397;28;20834;-66
2022/11/02 03:39:48;;;;;;;2.93;2.83;;;20.70;99.90;;;;;;5033223;28;20507;-66
2022/11/02 03:42:19;;;;;;;3.10;3.00;;;20.70;99.90;;;;;;5033072;28;20442;-66
2022/11/02 03:44:53;;;;;;;2.77;2.67;;;20.70;99.90;;;;;;5033370;28;20441;-66
2022/11/02 03:47:22;;;;;;;3.10;3.00;;;20.70;99.90;;;;;;5033114;28;20488;-66
2022/11/02 03:49:51;;;;;;;2.80;2.70;;;20.70;99.90;;;;;;5033048;28;20476;-66
2022/11/02 03:52:23;;;;;;;2.53;2.47;;;20.70;99.90;;;;;;5032773;28;20533;-65
2022/11/02 03:54:58;;;;;;;3.03;2.83;;;20.70;99.90;;;;;;5033071;28;20538;-66
2022/11/02 03:57:33;;;;;;;2.50;2.50;;;20.70;99.90;;;;;;5033002;28;20560;-66
2022/11/02 04:00:09;;;;;;;2.87;2.73;;;20.70;99.90;;;;;;5032822;28;20563;-66
2022/11/02 04:02:37;;;;;;;3.50;3.30;;;20.70;99.90;;;;;;5032679;28;20808;-66
2022/11/02 04:05:05;;;;;;;2.50;2.50;;;20.70;99.90;;;;;;5032577;28;20480;-65
2022/11/02 04:10:16;;;;;;;3.60;3.20;;;20.70;99.90;;;;;;5031503;28;20445;-66
2022/11/02 04:15:29;;;;;;;2.50;2.50;;;20.70;99.90;;;;;;5032647;28;20479;-67
2022/11/02 04:20:42;;;;;;;3.10;3.00;;;20.70;99.90;;;;;;5022949;28;20528;-65
2022/11/02 04:25:53;;;;;;;3.10;2.97;;;20.70;99.90;;;;;;5032267;28;20460;-65
2022/11/02 04:28:20;;;;;;;3.23;3.13;;;20.70;99.90;;;;;;5032095;28;20870;-66
2022/11/02 04:30:49;;;;;;;2.70;2.70;;;20.60;99.90;;;;;;5032124;28;20455;-66
2022/11/02 04:33:33;;;;;;;2.80;2.70;;;20.60;99.90;;;;;;5032366;28;20948;-65
2022/11/02 04:36:01;;;;;;;3.20;3.10;;;20.60;99.90;;;;;;5032091;28;20531;-66
2022/11/02 04:38:39;;;;;;;3.53;3.33;;;20.60;99.90;;;;;;5031971;28;20480;-66
2022/11/02 04:43:51;;;;;;;3.33;2.93;;;20.60;99.90;;;;;;5032295;28;20790;-66
2022/11/02 04:46:19;;;;;;;2.97;2.87;;;20.60;99.90;;;;;;5031860;28;20449;-66
2022/11/02 04:48:46;;;;;;;3.20;3.10;;;20.60;99.90;;;;;;5032159;28;20874;-66
2022/11/02 04:51:13;;;;;;;2.87;2.87;;;20.60;99.90;;;;;;5031860;28;20484;-66
2022/11/02 04:53:40;;;;;;;3.33;3.23;;;20.60;99.90;;;;;;5031720;28;20522;-66
2022/11/02 04:56:08;;;;;;;3.40;3.07;;;20.60;99.90;;;;;;5031977;28;20540;-65
2022/11/02 04:58:35;;;;;;;3.10;3.00;;;20.60;99.90;;;;;;5032057;28;20480;-67
2022/11/02 05:01:06;;;;;;;3.53;3.33;;;20.60;99.90;;;;;;5031672;28;20564;-66
2022/11/02 05:03:34;;;;;;;3.27;3.17;;;20.60;99.90;;;;;;5031829;28;20436;-66
2022/11/02 05:06:01;;;;;;;3.93;3.83;;;20.60;99.90;;;;;;5012224;28;20448;-67
2022/11/02 05:08:28;;;;;;;3.50;3.30;;;20.60;99.90;;;;;;5011935;28;20504;-67
2022/11/02 05:10:55;;;;;;;3.30;3.20;;;20.60;99.90;;;;;;5011803;28;20442;-68
2022/11/02 05:13:22;;;;;;;3.60;3.50;;;20.60;99.90;;;;;;5024131;28;20965;-67
2022/11/02 05:15:50;;;;;;;3.73;3.53;;;20.60;99.90;;;;;;5031639;28;20531;-68
2022/11/02 05:18:17;;;;;;;3.73;3.63;;;20.60;99.90;;;;;;5031645;28;20459;-68
2022/11/02 05:20:51;;;;;;;4.30;4.20;;;20.60;99.90;;;;;;5031515;28;20485;-68
2022/11/02 05:23:18;;;;;;;3.17;3.10;;;20.60;99.90;;;;;;5031086;28;20453;-68
2022/11/02 05:25:52;;;;;;;4.40;4.00;;;20.60;99.90;;;;;;5031682;28;20820;-68
2022/11/02 05:28:19;;;;;;;8.90;4.97;;;20.60;99.90;;;;;;5031452;28;20472;-68
2022/11/02 05:30:46;;;;;;;14.83;7.87;;;20.60;99.90;;;;;;5031334;28;20532;-67
2022/11/02 05:33:13;;;;;;;19.37;7.47;;;20.70;99.90;;;;;;5031173;28;20620;-68
2022/11/02 05:35:40;;;;;;;17.37;6.80;;;20.70;99.90;;;;;;5031563;28;20528;-68
2022/11/02 05:38:08;;;;;;;17.97;7.23;;;20.70;99.90;;;;;;5031345;28;20547;-68
2022/11/02 05:40:36;;;;;;;16.37;9.13;;;20.70;99.90;;;;;;5031258;28;20485;-66
2022/11/02 05:43:04;;;;;;;13.03;6.80;;;20.70;99.90;;;;;;5031308;28;20992;-65
2022/11/02 05:45:31;;;;;;;14.80;7.87;;;20.70;99.90;;;;;;5031480;28;20540;-66
2022/11/02 05:48:01;;;;;;;9.83;6.07;;;20.70;99.90;;;;;;5031392;28;20838;-65
2022/11/02 05:50:28;;;;;;;12.80;6.47;;;20.70;99.90;;;;;;5031227;28;20444;-65
2022/11/02 05:52:55;;;;;;;12.57;6.40;;;20.70;99.90;;;;;;5030757;28;21023;-66
2022/11/02 05:55:23;;;;;;;12.57;6.20;;;20.70;99.90;;;;;;5030879;28;20532;-66
2022/11/02 05:57:52;;;;;;;8.90;5.90;;;20.70;99.90;;;;;;5031218;28;20987;-66
2022/11/02 06:00:19;;;;;;;13.60;6.00;;;20.70;99.90;;;;;;5031114;28;20480;-66
2022/11/02 06:02:46;;;;;;;10.40;6.83;;;20.70;99.90;;;;;;5030822;28;20539;-65
2022/11/02 06:05:14;;;;;;;9.30;7.20;;;20.70;99.90;;;;;;5031288;28;20476;-66
2022/11/02 06:07:41;;;;;;;6.70;5.20;;;20.70;99.90;;;;;;5031264;28;20461;-66
2022/11/02 06:10:08;;;;;;;8.20;5.87;;;20.70;99.90;;;;;;5031019;28;20495;-65
2022/11/02 06:12:36;;;;;;;11.93;7.00;;;20.70;99.90;;;;;;5030871;28;20467;-66
2022/11/02 06:15:03;;;;;;;10.33;6.10;;;20.70;99.90;;;;;;5031305;28;20449;-66
2022/11/02 06:17:37;;;;;;;6.53;5.93;;;20.70;99.90;;;;;;5031028;28;20551;-65
2022/11/02 06:20:06;;;;;;;8.67;5.47;;;20.70;99.90;;;;;;5030916;28;21019;-65
2022/11/02 06:22:39;;;;;;;5.77;5.37;;;20.70;99.90;;;;;;5030753;28;20445;-66
2022/11/02 06:25:06;;;;;;;10.20;6.17;;;20.60;99.90;;;;;;5031272;28;20524;-66
2022/11/02 06:27:33;;;;;;;8.60;5.20;;;20.60;99.90;;;;;;5030889;28;20838;-66
2022/11/02 06:30:02;;;;;;;8.73;5.47;;;20.60;99.90;;;;;;5031058;28;20532;-68
2022/11/02 06:32:29;;;;;;;10.57;5.80;;;20.70;99.90;;;;;;5030752;28;21049;-68
2022/11/02 06:34:56;;;;;;;10.27;7.80;;;20.60;99.90;;;;;;5030958;28;20476;-65
2022/11/02 06:37:23;;;;;;;9.30;6.20;;;20.60;99.90;;;;;;5034148;28;20469;-66
2022/11/02 06:39:49;;;;;;;6.20;5.33;;;20.60;99.90;;;;;;5034434;28;20488;-66
2022/11/02 06:42:16;;;;;;;7.97;5.40;;;20.60;99.90;;;;;;5034134;28;20878;-66
2022/11/02 06:44:43;;;;;;;6.07;5.47;;;20.60;99.90;;;;;;5034442;28;20444;-66
2022/11/02 06:47:11;;;;;;;12.33;7.07;;;20.60;99.90;;;;;;5034270;28;21012;-65
2022/11/02 06:49:38;;;;;;;6.23;5.67;;;20.60;99.90;;;;;;5034087;28;20475;-65
2022/11/02 06:52:05;;;;;;;5.30;4.80;;;20.60;99.90;;;;;;5033936;28;20441;-66
2022/11/02 06:54:32;;;;;;;5.50;5.00;;;20.60;99.90;;;;;;5034174;28;20527;-66
2022/11/02 06:56:59;;;;;;;6.63;5.10;;;20.60;99.90;;;;;;5034128;28;20500;-66
2022/11/02 06:59:25;;;;;;;6.53;5.10;;;20.60;99.90;;;;;;5033857;28;20444;-66
2022/11/02 07:01:53;;;;;;;8.70;5.77;;;20.60;99.90;;;;;;5033817;28;21037;-66
2022/11/02 07:04:21;;;;;;;5.90;4.60;;;20.60;99.90;;;;;;5034100;28;20543;-66
2022/11/02 07:06:48;;;;;;;9.73;5.37;;;20.60;99.90;;;;;;5033942;28;20468;-66
2022/11/02 07:09:15;;;;;;;5.60;5.10;;;20.60;99.90;;;;;;5033587;28;20441;-65
2022/11/02 07:11:42;;;;;;;5.57;4.60;;;20.60;99.90;;;;;;5033133;28;20533;-66
2022/11/02 07:14:08;;;;;;;7.67;5.43;;;20.60;99.90;;;;;;5033915;28;20605;-65
2022/11/02 07:16:35;;;;;;;4.87;4.60;;;20.60;99.90;;;;;;5033715;28;20497;-65
2022/11/02 07:19:03;;;;;;;5.37;4.97;;;20.60;99.90;;;;;;5033455;28;21009;-66
2022/11/02 07:21:31;;;;;;;4.63;4.37;;;20.60;99.90;;;;;;5033401;28;20477;-65
2022/11/02 07:23:58;;;;;;;5.03;4.53;;;20.60;99.90;;;;;;5033738;28;20477;-66
2022/11/02 07:26:25;;;;;;;5.00;4.70;;;20.60;99.90;;;;;;5033505;28;20456;-66
2022/11/02 07:28:52;;;;;;;6.07;5.57;;;20.60;99.90;;;;;;5033143;28;20445;-66
2022/11/02 07:31:19;;;;;;;5.00;4.60;;;20.60;99.90;;;;;;5033250;28;20447;-66
2022/11/02 07:33:46;;;;;;;5.20;4.87;;;20.60;99.90;;;;;;5033483;28;20447;-66
2022/11/02 07:36:13;;;;;;;5.67;5.17;;;20.60;99.90;;;;;;5033308;28;20455;-66
2022/11/02 07:38:42;;;;;;;5.77;5.27;;;20.60;99.90;;;;;;5033194;28;20532;-65
2022/11/02 07:41:09;;;;;;;5.17;4.67;;;20.60;99.90;;;;;;5032996;28;20480;-66
2022/11/02 07:43:36;;;;;;;5.40;5.00;;;20.60;99.90;;;;;;5033256;28;20444;-65
2022/11/02 07:46:03;;;;;;;4.73;4.53;;;20.60;99.90;;;;;;5033275;28;20451;-66
2022/11/02 07:48:30;;;;;;;7.07;5.10;;;20.60;99.90;;;;;;5032763;28;20551;-65
2022/11/02 07:50:58;;;;;;;5.13;4.77;;;20.60;99.90;;;;;;5032888;28;20451;-66
2022/11/02 07:53:25;;;;;;;4.70;4.30;;;20.60;99.90;;;;;;5033178;28;20464;-67
2022/11/02 07:55:53;;;;;;;4.70;4.50;;;20.60;99.90;;;;;;5032990;28;20449;-66
2022/11/02 07:58:20;;;;;;;4.57;4.27;;;20.50;99.90;;;;;;5032736;28;20504;-67
2022/11/02 08:00:47;;;;;;;4.93;4.73;;;20.50;99.90;;;;;;5032836;28;20480;-67
2022/11/02 08:03:14;;;;;;;6.10;5.60;;;20.60;99.90;;;;;;5032867;28;20445;-67
2022/11/02 08:05:42;;;;;;;4.60;4.30;;;20.60;99.90;;;;;;5032871;28;20452;-67
2022/11/02 08:08:12;;;;;;;4.30;4.10;;;20.60;99.90;;;;;;5032469;28;20886;-66
2022/11/02 08:10:39;;;;;;;4.57;4.37;;;20.60;99.90;;;;;;5032538;28;20476;-66
2022/11/02 08:13:07;;;;;;;4.70;4.50;;;20.50;99.90;;;;;;5032768;28;20477;-66
2022/11/02 08:15:34;;;;;;;5.17;4.97;;;20.50;99.90;;;;;;5032651;28;20538;-67
2022/11/02 08:18:02;;;;;;;5.30;5.00;;;20.50;99.90;;;;;;5032478;28;20492;-67
2022/11/02 08:20:29;;;;;;;5.30;4.90;;;20.50;99.90;;;;;;5032234;28;20456;-67
2022/11/02 08:22:56;;;;;;;4.60;4.33;;;20.50;99.90;;;;;;5032604;28;20534;-66
2022/11/02 08:25:24;;;;;;;5.40;4.57;;;20.50;99.90;;;;;;5032431;28;20472;-67
2022/11/02 08:27:51;;;;;;;3.93;3.73;;;20.50;99.90;;;;;;5031985;28;20476;-67
2022/11/02 08:30:19;;;;;;;4.90;4.60;;;20.50;99.90;;;;;;5032213;28;20453;-66
2022/11/02 08:32:46;;;;;;;4.80;4.60;;;20.50;99.90;;;;;;5032440;28;20444;-67
2022/11/02 08:35:12;;;;;;;4.97;4.67;;;20.50;99.90;;;;;;5032329;28;20479;-66
2022/11/02 08:37:39;;;;;;;4.70;4.50;;;20.50;99.90;;;;;;5032012;28;20505;-66
2022/11/02 08:40:07;;;;;;;4.93;4.73;;;20.50;99.90;;;;;;5032113;28;20475;-66
2022/11/02 08:42:37;;;;;;;4.50;4.17;;;20.50;99.90;;;;;;5032042;28;21039;-67
2022/11/02 08:45:05;;;;;;;4.13;3.93;;;20.50;99.90;;;;;;5032218;28;20449;-66
2022/11/02 08:47:33;;;;;;;4.90;4.60;;;20.50;99.90;;;;;;5031796;28;20464;-67
2022/11/02 08:50:00;;;;;;;4.60;4.20;;;20.50;99.90;;;;;;5032019;28;20454;-68
2022/11/02 08:52:27;;;;;;;4.90;4.50;;;20.50;99.90;;;;;;5032052;28;20441;-66
2022/11/02 08:54:54;;;;;;;5.00;4.80;;;20.50;99.90;;;;;;5032002;28;20544;-67
2022/11/02 08:57:21;;;;;;;4.73;4.60;;;20.50;99.90;;;;;;5031921;28;20555;-66
2022/11/02 08:59:47;;;;;;;4.43;4.23;;;20.50;99.90;;;;;;5031000;28;20452;-67
2022/11/02 09:02:14;;;;;;;3.80;3.60;;;20.50;99.90;;;;;;5031785;28;20477;-66
2022/11/02 09:04:42;;;;;;;4.37;4.17;;;20.50;99.90;;;;;;5031837;28;20455;-66
2022/11/02 09:07:09;;;;;;;3.90;3.70;;;20.50;99.90;;;;;;5031937;28;20970;-65
2022/11/02 09:09:36;;;;;;;4.57;4.30;;;20.50;99.90;;;;;;5031583;28;20531;-66
2022/11/02 09:12:03;;;;;;;4.63;4.23;;;20.50;99.90;;;;;;5031551;28;20878;-66
2022/11/02 09:14:30;;;;;;;5.03;4.80;;;20.50;99.90;;;;;;5031298;28;20896;-67
2022/11/02 09:16:57;;;;;;;4.80;4.60;;;20.50;99.90;;;;;;5031731;28;20457;-66
2022/11/02 09:19:23;;;;;;;4.50;4.30;;;20.50;99.90;;;;;;5031673;28;20471;-66
2022/11/02 09:21:51;;;;;;;4.40;4.20;;;20.50;99.90;;;;;;5031417;28;20480;-67
2022/11/02 09:24:18;;;;;;;5.40;5.20;;;20.50;99.90;;;;;;5031501;28;20833;-67
2022/11/02 09:26:47;;;;;;;4.50;4.40;;;20.50;99.90;;;;;;5032079;28;20475;-67
2022/11/02 09:29:14;;;;;;;4.30;4.20;;;20.50;99.90;;;;;;5032046;28;20448;-67
2022/11/02 09:31:40;;;;;;;4.70;4.50;;;20.50;99.90;;;;;;5031502;28;20449;-67
2022/11/02 09:34:07;;;;;;;4.33;4.23;;;20.50;99.90;;;;;;5031621;28;20441;-67
2022/11/02 09:36:34;;;;;;;5.47;5.17;;;20.50;99.90;;;;;;5031853;28;20525;-66
2022/11/02 09:39:02;;;;;;;4.73;4.23;;;20.50;99.90;;;;;;5031760;28;20476;-67
2022/11/02 09:41:36;;;;;;;4.00;3.80;;;20.50;99.90;;;;;;5031504;28;20491;-66
2022/11/02 09:44:09;;;;;;;3.90;3.80;;;20.50;99.90;;;;;;5031446;28;20454;-66
2022/11/02 09:46:38;;;;;;;4.77;4.50;;;20.50;99.90;;;;;;5031897;28;20530;-67
2022/11/02 09:49:11;;;;;;;4.00;3.90;;;20.50;99.90;;;;;;5031633;28;20532;-67
2022/11/02 09:51:42;;;;;;;4.87;4.53;;;20.50;99.90;;;;;;5031032;28;20545;-67
2022/11/02 09:54:16;;;;;;;4.00;3.90;;;20.50;99.90;;;;;;5028055;28;20520;-67
2022/11/02 09:56:43;;;;;;;4.57;4.33;;;20.50;99.90;;;;;;5031224;28;20468;-67
2022/11/02 09:59:14;;;;;;;4.20;4.07;;;20.50;99.90;;;;;;5031662;28;20451;-70
2022/11/02 10:02:01;;;;;;;4.70;4.50;;;20.50;99.90;;;;;;5031196;28;20481;-69
2022/11/02 10:04:55;;;;;;;4.33;4.17;;;20.50;99.90;;;;;;5031367;28;20659;-69
2022/11/02 10:07:41;;;;;;;4.47;4.37;;;20.50;99.90;;;;;;5031383;28;20461;-70
2022/11/02 10:10:15;;;;;;;4.30;4.10;;;20.50;99.90;;;;;;5031122;28;20453;-69
2022/11/02 10:12:51;;;;;;;4.57;4.30;;;20.50;99.90;;;;;;5035291;28;20445;-70
2022/11/02 10:15:21;;;;;;;3.90;3.80;;;20.50;99.90;;;;;;5035252;28;20453;-70
2022/11/02 10:17:53;;;;;;;4.13;4.00;;;20.50;99.90;;;;;;5034925;28;20638;-70
2022/11/02 10:20:26;;;;;;;4.20;4.10;;;20.50;99.90;;;;;;5034465;28;20483;-71
2022/11/02 10:22:58;;;;;;;4.73;4.50;;;20.50;99.90;;;;;;5034757;28;20477;-70
2022/11/02 10:25:27;;;;;;;4.20;4.10;;;20.50;99.90;;;;;;5034921;28;20448;-70
2022/11/02 10:28:03;;;;;;;4.93;4.83;;;20.50;99.90;;;;;;5034736;28;20568;-73
2022/11/02 10:30:30;;;;;;;4.40;4.30;;;20.50;99.90;;;;;;5034670;28;20444;-68
2022/11/02 10:32:57;;;;;;;4.10;4.00;;;20.50;99.90;;;;;;5034728;28;20523;-70
2022/11/02 10:35:33;;;;;;;4.97;4.70;;;20.50;99.90;;;;;;5034826;28;20935;-71
2022/11/02 10:38:17;;;;;;;4.27;4.07;;;20.50;99.90;;;;;;5034635;28;21028;-70
2022/11/02 10:41:03;;;;;;;4.87;4.67;;;20.50;99.90;;;;;;5034573;28;20440;-69
2022/11/02 10:43:44;;;;;;;4.60;4.40;;;20.50;99.90;;;;;;5034696;28;20476;-72
2022/11/02 10:46:26;;;;;;;4.40;4.20;;;20.50;99.90;;;;;;5034360;28;20536;-71
2022/11/02 10:49:04;;;;;;;4.10;3.90;;;20.50;99.90;;;;;;5040114;28;20535;-71
2022/11/02 10:51:31;;;;;;;4.30;4.17;;;20.50;99.90;;;;;;5040506;28;20531;-72
2022/11/02 10:53:59;;;;;;;4.70;4.40;;;20.50;99.90;;;;;;5039866;28;20785;-69
2022/11/02 10:56:30;;;;;;;3.77;3.67;;;20.50;99.90;;;;;;5039822;28;20469;-69
2022/11/02 10:59:03;;;;;;;4.73;4.47;;;20.50;99.90;;;;;;5036469;28;20532;-70
2022/11/02 11:01:31;;;;;;;3.93;3.83;;;20.50;99.80;;;;;;5039225;28;20535;-70
2022/11/02 11:04:00;;;;;;;4.07;3.97;;;20.50;99.70;;;;;;5039330;28;20484;-70
2022/11/02 11:06:30;;;;;;;4.13;4.03;;;20.50;99.70;;;;;;5037418;28;20484;-71
2022/11/02 11:09:04;;;;;;;4.27;4.07;;;20.50;99.60;;;;;;5037818;28;20520;-71
2022/11/02 11:11:35;;;;;;;4.70;4.50;;;20.50;99.60;;;;;;5037814;28;20529;-70
2022/11/02 11:14:06;;;;;;;4.17;4.07;;;20.50;99.50;;;;;;5039704;28;20522;-70
2022/11/02 11:16:36;;;;;;;4.73;4.27;;;20.50;99.50;;;;;;5037210;28;20556;-70
2022/11/02 11:19:05;;;;;;;5.47;4.97;;;20.50;99.40;;;;;;5037375;28;20456;-70
2022/11/02 11:21:37;;;;;;;4.40;4.20;;;20.60;99.40;;;;;;5036062;28;20491;-71
2022/11/02 11:24:26;;;;;;;4.57;4.50;;;20.60;99.40;;;;;;5037523;28;20441;-70
2022/11/02 11:27:15;;;;;;;4.47;4.27;;;20.60;99.30;;;;;;5028761;28;20492;-71
2022/11/02 11:29:48;;;;;;;4.07;4.00;;;20.60;99.20;;;;;;5036386;28;20531;-71
2022/11/02 11:32:17;;;;;;;4.80;4.70;;;20.60;99.20;;;;;;5036215;28;20528;-71
2022/11/02 11:34:49;;;;;;;4.17;4.07;;;20.60;99.50;;;;;;5036140;28;20476;-70
2022/11/02 11:37:17;;;;;;;4.00;3.90;;;20.60;99.20;;;;;;5037321;28;20573;-71
2022/11/02 11:39:46;;;;;;;4.10;4.00;;;20.60;99.20;;;;;;5036379;28;20540;-69
2022/11/02 11:42:17;;;;;;;4.33;4.13;;;20.60;99.20;;;;;;5036335;28;20496;-70
2022/11/02 11:44:46;;;;;;;4.30;4.20;;;20.60;99.20;;;;;;5036205;28;20970;-70
2022/11/02 11:47:14;;;;;;;4.70;4.50;;;20.60;99.10;;;;;;5036491;28;20473;-69
2022/11/02 11:49:48;;;;;;;4.00;3.90;;;20.60;99.00;;;;;;5035885;28;20457;-69
2022/11/02 11:52:21;;;;;;;4.17;3.97;;;20.60;99.00;;;;;;5036728;28;20927;-70
2022/11/02 11:54:56;;;;;;;3.80;3.70;;;20.60;99.00;;;;;;5038069;28;20544;-70
2022/11/02 11:57:30;;;;;;;4.53;4.33;;;20.60;99.00;;;;;;5036723;28;20560;-71
2022/11/02 12:00:00;;;;;;;4.53;4.43;;;20.70;98.90;;;;;;5034996;28;20453;-69
2022/11/02 12:02:29;;;;;;;4.00;3.80;;;20.70;98.90;;;;;;5034880;28;20484;-71
2022/11/02 12:05:11;;;;;;;4.10;4.00;;;20.70;98.90;;;;;;5033785;28;20589;-71
2022/11/02 12:08:13;;;;;;;4.30;4.10;;;20.70;98.80;;;;;;5034478;28;20516;-71
2022/11/02 12:11:02;;;;;;;4.43;4.23;;;20.70;98.80;;;;;;5034781;28;21029;-72
2022/11/02 12:13:53;;;;;;;3.80;3.70;;;20.70;98.70;;;;;;5033717;28;20991;-71
2022/11/02 12:16:29;;;;;;;3.97;3.87;;;20.70;98.70;;;;;;5033764;28;20441;-71
2022/11/02 12:19:12;;;;;;;4.60;4.50;;;20.70;98.60;;;;;;5033595;28;20503;-71
2022/11/02 12:21:50;;;;;;;4.00;3.80;;;20.70;98.60;;;;;;5033287;28;20527;-70
2022/11/02 12:24:36;;;;;;;4.43;4.33;;;20.70;98.60;;;;;;5035170;28;20484;-70
2022/11/02 12:27:17;;;;;;;3.90;3.80;;;20.70;98.60;;;;;;5034545;28;20556;-72
2022/11/02 12:30:09;;;;;;;3.80;3.70;;;20.70;98.50;;;;;;5034923;28;20973;-72
2022/11/02 12:32:57;;;;;;;4.00;3.83;;;20.70;98.40;;;;;;5034615;28;20445;-71
2022/11/02 12:35:34;;;;;;;4.77;4.57;;;20.80;98.50;;;;;;5033551;28;20506;-72
2022/11/02 12:38:38;;;;;;;6.30;6.10;;;20.80;98.40;;;;;;5033614;28;20551;-72
2022/11/02 12:41:09;;;;;;;3.83;3.73;;;20.80;98.40;;;;;;4998018;28;21014;-72
2022/11/02 12:43:40;;;;;;;3.97;3.87;;;20.80;98.30;;;;;;5033622;28;20571;-71
2022/11/02 12:46:28;;;;;;;4.03;3.93;;;20.80;98.30;;;;;;5034262;28;20548;-72
2022/11/02 12:49:15;;;;;;;4.27;3.97;;;20.80;98.30;;;;;;5033630;28;20503;-72
2022/11/02 12:51:52;;;;;;;4.90;4.17;;;20.80;98.20;;;;;;5033389;28;20837;-71
2022/11/02 12:54:21;;;;;;;4.33;4.20;;;20.80;98.20;;;;;;5033124;28;20476;-72
2022/11/02 12:56:50;;;;;;;4.70;4.53;;;20.80;98.20;;;;;;5032815;28;20901;-72
2022/11/02 12:59:21;;;;;;;4.00;3.90;;;20.80;98.20;;;;;;5033830;28;20481;-72
2022/11/02 13:01:54;;;;;;;4.50;4.40;;;20.90;98.20;;;;;;5034898;28;20516;-71
2022/11/02 13:04:27;;;;;;;4.33;4.23;;;20.90;98.10;;;;;;5034762;28;20535;-71
2022/11/02 13:06:59;;;;;;;3.90;3.80;;;20.90;98.10;;;;;;5033716;28;20504;-72
2022/11/02 13:09:31;;;;;;;4.00;3.90;;;20.90;98.10;;;;;;5034018;28;20526;-72
2022/11/02 13:12:02;;;;;;;4.27;4.17;;;20.90;98.00;;;;;;5034245;28;20852;-72
2022/11/02 13:14:34;;;;;;;3.53;3.50;;;20.90;97.90;;;;;;5034268;28;20444;-72
2022/11/02 13:17:09;;;;;;;3.60;3.60;;;20.90;97.90;;;;;;5034997;28;20895;-73